Marathon, Texas
Current Conditions -  °F | °C
As of 2:35 PM on Thursday 29 Jan 2015 (Local Time) from KE38 Reporting Station
Broken Clouds Broken Clouds  
Wind Chill: 61°   Ceiling: 8500
Heat Index: 61°   Visibility: 10mi
Dew Point: 37°   Wind: 14mph
Humidity: 41%   Direction: 40°NE
Pressure: 30.38"   Gusts: 21mph
Location:  30.21°N, 103.25°W
Report Text: KE38 292035Z AUTO 04012G18KT 10SM SCT075 BKN085 16/03 A3038 RMK AO2 T01630030
Loading
Personal Weather Stations






























Interactive Weather Map New forecast layout! Learn more

10-Day Weather Forecast

Advertisements
Track Severe Weather on mobile